Time;durP1;ratioP1;P1;durP2;ratioP2;P2;SDS_P1;SDS_P2;PMS_P1;PMS_P2;Temp;Humidity;BMP_temperature;BMP_pressure;BME280_temperature;BME280_humidity;BME280_pressure;Samples;Min_cycle;Max_cycle;Signal;HPM_P1;HPM_P2
2023/02/20 00:00:36;;;;;;;26.62;19.07;;;22.60;81.60;;;;;;1884325;76;21106;-83
2023/02/20 00:03:07;;;;;;;24.23;18.55;;;22.60;80.90;;;;;;1884744;75;21114;-84
2023/02/20 00:05:38;;;;;;;26.00;18.77;;;22.60;81.00;;;;;;1876463;75;21162;-83
2023/02/20 00:08:09;;;;;;;26.07;19.90;;;22.70;81.00;;;;;;1876486;76;21227;-83
2023/02/20 00:10:40;;;;;;;26.75;18.57;;;22.70;81.10;;;;;;1873116;76;21857;-83
2023/02/20 00:13:11;;;;;;;27.95;18.40;;;22.70;81.20;;;;;;1875365;76;21165;-82
2023/02/20 00:15:42;;;;;;;27.22;18.32;;;22.80;81.10;;;;;;1870821;75;21126;-83
2023/02/20 00:18:13;;;;;;;29.00;19.17;;;22.80;81.00;;;;;;1893972;75;21123;-82
2023/02/20 00:20:44;;;;;;;28.55;19.92;;;22.90;80.80;;;;;;1875850;75;21122;-83
2023/02/20 00:23:15;;;;;;;30.10;19.42;;;22.90;80.80;;;;;;1874441;76;21403;-82
2023/02/20 00:25:46;;;;;;;28.90;19.27;;;22.90;80.60;;;;;;1874137;76;21134;-81
2023/02/20 00:28:17;;;;;;;34.50;19.77;;;22.90;80.40;;;;;;1872102;75;21106;-83
2023/02/20 00:30:47;;;;;;;33.67;18.80;;;23.00;80.40;;;;;;1907316;75;21207;-83
2023/02/20 00:33:18;;;;;;;31.37;18.90;;;23.00;80.50;;;;;;1873180;76;21303;-82
2023/02/20 00:35:49;;;;;;;28.50;18.15;;;23.10;80.40;;;;;;1872785;75;21830;-83
2023/02/20 00:38:20;;;;;;;25.68;18.10;;;23.10;80.30;;;;;;1874793;76;21141;-83
2023/02/20 00:40:51;;;;;;;24.60;19.15;;;23.10;79.80;;;;;;1872834;76;21146;-83
2023/02/20 00:43:22;;;;;;;29.27;18.75;;;23.20;79.70;;;;;;1871394;75;22018;-83
2023/02/20 00:45:53;;;;;;;26.00;19.62;;;23.20;79.80;;;;;;1873217;75;21103;-83
2023/02/20 00:48:24;;;;;;;30.00;19.52;;;23.30;79.70;;;;;;1903108;75;21211;-83
2023/02/20 00:50:54;;;;;;;29.90;19.62;;;23.30;79.30;;;;;;1876039;76;21182;-83
2023/02/20 00:53:25;;;;;;;26.70;18.70;;;23.30;79.30;;;;;;1871719;76;21210;-82
2023/02/20 00:55:56;;;;;;;25.30;18.85;;;23.40;79.00;;;;;;1871707;75;21196;-91
2023/02/20 00:58:27;;;;;;;26.75;18.73;;;23.30;78.80;;;;;;1866969;75;21123;-91
2023/02/20 01:00:58;;;;;;;26.05;17.82;;;23.40;79.00;;;;;;1875559;76;21127;-73
2023/02/20 01:03:29;;;;;;;26.25;18.92;;;23.50;77.70;;;;;;1871306;75;21920;-79
2023/02/20 01:06:00;;;;;;;28.50;18.02;;;23.50;77.30;;;;;;1873420;75;21196;-75
2023/02/20 01:08:32;;;;;;;25.68;19.15;;;23.60;77.10;;;;;;1873420;75;21209;-76
2023/02/20 01:11:03;;;;;;;27.20;18.12;;;23.70;77.20;;;;;;1872204;75;21650;-74
2023/02/20 01:13:35;;;;;;;32.13;18.92;;;23.70;76.90;;;;;;1876711;75;21216;-73
2023/02/20 01:16:06;;;;;;;32.13;20.08;;;23.80;76.30;;;;;;1855886;75;21115;-74
2023/02/20 01:18:40;;;;;;;27.62;19.90;;;23.80;76.20;;;;;;1872995;76;21247;-75
2023/02/20 01:21:11;;;;;;;31.82;21.73;;;23.90;76.10;;;;;;1881713;75;21190;-76
2023/02/20 01:23:42;;;;;;;28.05;21.02;;;23.90;75.80;;;;;;1871481;75;21125;-75
2023/02/20 01:26:15;;;;;;;31.48;22.45;;;23.90;75.00;;;;;;1874327;76;21231;-76
2023/02/20 01:28:51;;;;;;;33.30;21.62;;;23.90;74.80;;;;;;1874588;75;21183;-75
2023/02/20 01:31:19;;;;;;;31.10;21.00;;;23.90;75.10;;;;;;1874486;75;21883;-74
2023/02/20 01:33:56;;;;;;;27.77;20.60;;;23.90;75.40;;;;;;1857988;75;21450;-75
2023/02/20 01:36:28;;;;;;;31.17;21.77;;;23.90;75.30;;;;;;1868273;75;21165;-76
2023/02/20 01:39:19;;;;;;;31.48;20.75;;;24.00;75.30;;;;;;1862668;76;21125;-75
2023/02/20 01:41:53;;;;;;;25.85;19.77;;;24.00;74.20;;;;;;1778172;80;21178;-75
2023/02/20 01:44:29;;;;;;;29.95;21.05;;;24.00;73.90;;;;;;1768028;80;21188;-73
2023/02/20 01:47:02;;;;;;;23.90;19.32;;;24.00;74.10;;;;;;1779330;79;21142;-74
2023/02/20 01:49:41;;;;;;;31.12;19.57;;;24.00;74.20;;;;;;1771195;79;21181;-76
2023/02/20 01:52:20;;;;;;;31.02;20.60;;;23.90;74.70;;;;;;1774848;79;21150;-75
2023/02/20 01:54:57;;;;;;;32.48;20.97;;;23.90;74.90;;;;;;1779986;79;21120;-74
2023/02/20 01:57:32;;;;;;;27.70;20.95;;;23.90;75.40;;;;;;1777557;79;21158;-76
2023/02/20 02:06:49;;;;;;;27.22;19.23;;;24.00;75.10;;;;;;1779110;79;21153;-74
2023/02/20 02:09:41;;;;;;;25.17;19.10;;;24.00;74.50;;;;;;1778886;79;21872;-76
2023/02/20 02:12:12;;;;;;;26.48;18.90;;;24.00;73.70;;;;;;1775149;79;21227;-75
2023/02/20 02:14:44;;;;;;;30.37;20.10;;;24.00;73.50;;;;;;1780612;80;21665;-75
2023/02/20 02:17:33;;;;;;;;;;;;;;;;;;;;;
2023/02/20 02:20:44;;;;;;;24.50;17.77;;;24.10;73.30;;;;;;1821052;78;21176;-75
2023/02/20 02:23:36;;;;;;;23.38;19.15;;;24.10;73.10;;;;;;1808114;77;21123;-74
2023/02/20 02:26:21;;;;;;;25.68;18.65;;;24.10;73.50;;;;;;1808070;77;21376;-75
2023/02/20 02:29:16;;;;;;;28.25;20.35;;;24.20;72.60;;;;;;1801386;77;21774;-73
2023/02/20 02:31:57;;;;;;;28.47;19.45;;;24.20;72.00;;;;;;1793476;77;21243;-75
2023/02/20 02:34:50;;;;;;;26.75;19.70;;;24.30;72.80;;;;;;1804846;78;21574;-74
2023/02/20 02:37:40;;;;;;;24.35;19.30;;;24.30;72.50;;;;;;1802698;77;21176;-76
2023/02/20 02:40:28;;;;;;;29.35;19.55;;;24.40;72.50;;;;;;1792046;77;21202;-74
2023/02/20 02:43:09;;;;;;;22.82;18.30;;;24.50;71.90;;;;;;1760495;79;21214;-75
2023/02/20 02:46:01;;;;;;;26.70;19.40;;;24.60;71.60;;;;;;1811908;77;21191;-74
2023/02/20 02:48:41;;;;;;;28.40;19.45;;;24.60;71.00;;;;;;1805014;77;21706;-75
2023/02/20 02:51:17;;;;;;;26.10;18.23;;;24.70;71.10;;;;;;1779159;79;21202;-75
2023/02/20 02:54:10;;;;;;;22.87;17.67;;;24.80;70.60;;;;;;1758229;80;21597;-74
2023/02/20 02:56:46;;;;;;;24.77;17.48;;;24.80;70.00;;;;;;1762666;80;21166;-74
2023/02/20 02:59:23;;;;;;;22.93;16.95;;;24.90;69.50;;;;;;1763425;80;21125;-75
2023/02/20 03:01:56;;;;;;;22.98;17.37;;;25.00;69.70;;;;;;1760985;80;21227;-73
2023/02/20 03:04:30;;;;;;;23.57;16.82;;;25.10;69.00;;;;;;1766469;79;21191;-75
2023/02/20 03:07:04;;;;;;;22.55;17.05;;;25.20;69.10;;;;;;1748939;80;21412;-75
2023/02/20 03:09:37;;;;;;;23.18;17.00;;;25.30;68.40;;;;;;1746471;80;21590;-75
2023/02/20 03:12:11;;;;;;;24.98;16.75;;;25.40;67.30;;;;;;1778970;79;21179;-75
2023/02/20 03:21:07;;;;;;;19.57;16.40;;;25.60;67.20;;;;;;1778878;79;21573;-76
2023/02/20 03:23:40;;;;;;;23.75;16.23;;;25.70;66.90;;;;;;1779393;79;21235;-75
2023/02/20 03:26:17;;;;;;;21.70;14.70;;;25.80;66.70;;;;;;1776053;78;21184;-77
2023/02/20 03:28:53;;;;;;;19.05;15.25;;;25.90;66.10;;;;;;1777790;78;21899;-75
2023/02/20 03:31:47;;;;;;;24.30;15.80;;;26.10;64.60;;;;;;1777589;79;21208;-77
2023/02/20 03:43:27;;;;;;;25.60;16.70;;;26.40;63.20;;;;;;1755559;80;21276;-76
2023/02/20 03:46:05;;;;;;;20.15;15.40;;;26.50;63.40;;;;;;1794995;78;21225;-77
2023/02/20 03:48:44;;;;;;;30.08;15.68;;;26.60;62.50;;;;;;1799555;78;21148;-79
2023/02/20 03:51:16;;;;;;;22.05;15.93;;;26.80;62.30;;;;;;1800092;78;21257;-77
2023/02/20 03:53:48;;;;;;;19.50;15.30;;;26.90;61.40;;;;;;1762040;80;21892;-78
2023/02/20 03:56:23;;;;;;;20.62;15.32;;;27.00;61.20;;;;;;1725485;81;21613;-76
2023/02/20 03:58:59;;;;;;;21.62;15.15;;;27.10;61.40;;;;;;1745613;80;21229;-77
2023/02/20 04:01:35;;;;;;;23.22;15.18;;;27.20;60.70;;;;;;1756273;80;21192;-77
2023/02/20 04:04:10;;;;;;;19.02;14.80;;;27.30;60.60;;;;;;1757646;80;21275;-75
2023/02/20 04:06:45;;;;;;;19.52;14.87;;;27.40;60.10;;;;;;1800881;78;21215;-76
2023/02/20 04:09:21;;;;;;;25.80;15.23;;;27.50;60.20;;;;;;1795968;78;21161;-77
2023/02/20 04:12:11;;;;;;;20.45;15.08;;;27.50;59.70;;;;;;1751556;80;21604;-74
2023/02/20 04:17:52;;;;;;;20.27;14.68;;;27.70;59.60;;;;;;1759677;80;21393;-77
2023/02/20 04:20:25;;;;;;;19.32;14.90;;;27.80;59.10;;;;;;1729042;81;21173;-77
2023/02/20 04:23:00;;;;;;;21.90;15.35;;;27.80;59.10;;;;;;1763281;80;21983;-77
2023/02/20 04:25:44;;;;;;;18.62;14.83;;;28.00;59.20;;;;;;1754791;80;21480;-77
2023/02/20 04:28:15;;;;;;;19.87;15.48;;;28.10;58.80;;;;;;1748063;80;21184;-78
2023/02/20 04:30:47;;;;;;;22.95;15.93;;;28.30;58.50;;;;;;1754086;80;21730;-77
2023/02/20 04:33:22;;;;;;;20.25;14.70;;;28.40;58.20;;;;;;1722004;82;21090;-79
2023/02/20 04:35:53;;;;;;;17.73;15.10;;;28.40;57.90;;;;;;1726971;83;21118;-77
2023/02/20 04:38:25;;;;;;;18.87;14.60;;;28.50;57.60;;;;;;1746857;81;21585;-77
2023/02/20 04:40:56;;;;;;;18.67;14.28;;;28.50;57.60;;;;;;1728178;81;21288;-77
2023/02/20 04:43:31;;;;;;;21.82;15.32;;;28.60;57.10;;;;;;1753821;80;21189;-78
2023/02/20 04:46:05;;;;;;;18.17;14.53;;;28.60;56.80;;;;;;1773998;79;21236;-75
2023/02/20 04:48:37;;;;;;;20.50;14.58;;;28.60;57.10;;;;;;1747729;80;21613;-78
2023/02/20 04:51:09;;;;;;;19.55;13.75;;;28.60;57.50;;;;;;1779676;79;21602;-77
2023/02/20 04:53:56;;;;;;;21.15;15.13;;;28.70;56.40;;;;;;1783501;79;21330;-78
2023/02/20 04:56:21;;;;;;;22.37;15.45;;;28.80;55.60;;;;;;1806135;78;21258;-75
2023/02/20 04:59:00;;;;;;;20.82;14.33;;;28.80;55.30;;;;;;1796157;78;21771;-77
2023/02/20 05:01:46;;;;;;;19.27;14.23;;;28.80;55.60;;;;;;1803082;78;21248;-77
2023/02/20 05:04:14;;;;;;;17.32;13.62;;;28.90;55.30;;;;;;1799575;78;21282;-75
2023/02/20 05:06:48;;;;;;;21.62;15.68;;;28.90;55.50;;;;;;1803273;78;21184;-76
2023/02/20 05:09:24;;;;;;;22.25;15.13;;;29.00;56.50;;;;;;1807519;78;21609;-74
2023/02/20 05:11:56;;;;;;;22.45;15.32;;;29.10;56.00;;;;;;1776715;79;21193;-76
2023/02/20 05:14:27;;;;;;;18.00;14.58;;;29.20;55.60;;;;;;1778761;79;21180;-76
2023/02/20 05:17:01;;;;;;;20.15;14.75;;;29.20;55.10;;;;;;1774206;79;21392;-77
2023/02/20 05:19:36;;;;;;;19.12;14.90;;;29.30;55.70;;;;;;1772533;79;21536;-77
2023/02/20 05:22:20;;;;;;;19.55;15.05;;;29.40;55.30;;;;;;1778030;79;21592;-74
2023/02/20 05:24:52;;;;;;;18.17;14.33;;;29.40;55.10;;;;;;1794174;78;21197;-75
2023/02/20 05:27:25;;;;;;;18.50;14.55;;;29.40;55.40;;;;;;1775915;79;21147;-75
2023/02/20 05:29:58;;;;;;;17.30;14.70;;;29.50;55.30;;;;;;1764970;79;21288;-76
2023/02/20 05:32:31;;;;;;;19.62;15.08;;;29.50;55.40;;;;;;1778216;79;21189;-75
2023/02/20 05:35:02;;;;;;;20.23;13.83;;;29.60;55.70;;;;;;1737223;81;21987;-75
2023/02/20 05:37:34;;;;;;;20.00;15.08;;;29.60;54.60;;;;;;1793845;78;21599;-75
2023/02/20 05:40:06;;;;;;;21.77;14.73;;;29.70;54.30;;;;;;1793904;78;21118;-76
2023/02/20 05:42:38;;;;;;;17.55;14.63;;;29.70;54.50;;;;;;1798244;78;21180;-75
2023/02/20 05:45:10;;;;;;;18.55;14.55;;;29.70;54.30;;;;;;1794296;78;21135;-77
2023/02/20 05:47:42;;;;;;;21.45;16.00;;;29.70;54.10;;;;;;1790241;78;21172;-75
2023/02/20 05:50:14;;;;;;;17.45;15.13;;;29.70;54.20;;;;;;1793553;78;21144;-74
2023/02/20 05:52:46;;;;;;;20.17;15.08;;;29.70;54.50;;;;;;1771553;79;21202;-74
2023/02/20 05:55:17;;;;;;;17.15;14.38;;;29.90;59.30;;;;;;1774210;79;21362;-73
2023/02/20 05:57:55;;;;;;;17.85;13.85;;;29.90;54.70;;;;;;1770743;79;21213;-75
2023/02/20 06:00:28;;;;;;;18.62;15.20;;;29.90;54.20;;;;;;1769432;79;21288;-75
2023/02/20 06:03:06;;;;;;;20.88;14.00;;;29.80;54.40;;;;;;1770804;79;22022;-75
2023/02/20 06:06:01;;;;;;;19.77;13.85;;;29.90;53.40;;;;;;1775238;79;21895;-74
2023/02/20 06:08:35;;;;;;;18.12;14.38;;;29.90;53.80;;;;;;1715512;82;21266;-73
2023/02/20 06:11:11;;;;;;;19.90;14.58;;;30.00;54.20;;;;;;1711719;82;21692;-74
2023/02/20 06:13:44;;;;;;;15.72;13.98;;;30.10;53.10;;;;;;1714435;82;21312;-72
2023/02/20 06:16:18;;;;;;;18.23;14.10;;;30.10;53.20;;;;;;1712752;82;21273;-75
2023/02/20 06:18:49;;;;;;;20.97;14.50;;;30.10;54.00;;;;;;1715812;82;21179;-74
2023/02/20 06:21:22;;;;;;;19.20;14.33;;;30.20;53.30;;;;;;1717350;82;21266;-75
2023/02/20 06:23:54;;;;;;;21.07;14.60;;;30.20;53.60;;;;;;1713936;82;21704;-73
2023/02/20 06:26:25;;;;;;;18.75;15.35;;;30.30;53.40;;;;;;1715629;82;21259;-73
2023/02/20 06:28:57;;;;;;;18.10;14.05;;;30.30;53.50;;;;;;1683404;83;21940;-75
2023/02/20 06:31:31;;;;;;;20.08;15.00;;;30.40;52.90;;;;;;1687302;83;21291;-76
2023/02/20 06:34:06;;;;;;;21.42;13.70;;;30.40;52.70;;;;;;1682064;83;21407;-77
2023/02/20 06:36:42;;;;;;;19.50;14.13;;;30.40;52.50;;;;;;1664270;84;22080;-76
2023/02/20 06:39:14;;;;;;;18.48;14.23;;;30.40;52.50;;;;;;1677852;83;21957;-75
2023/02/20 06:41:46;;;;;;;17.82;14.20;;;30.40;52.30;;;;;;1678477;83;21543;-77
2023/02/20 06:44:17;;;;;;;15.72;13.93;;;30.40;52.80;;;;;;1700852;82;21290;-75
2023/02/20 06:46:53;;;;;;;18.50;13.95;;;30.40;52.90;;;;;;1737897;80;21242;-76
2023/02/20 06:49:24;;;;;;;15.68;13.03;;;30.40;52.70;;;;;;1737693;80;21260;-76
2023/02/20 06:51:57;;;;;;;16.73;13.90;;;30.40;52.50;;;;;;1743370;80;21202;-77
2023/02/20 06:54:32;;;;;;;18.27;14.13;;;30.40;51.80;;;;;;1739636;80;21268;-77
2023/02/20 06:57:04;;;;;;;20.00;13.48;;;30.30;53.00;;;;;;1745256;80;21159;-76
2023/02/20 07:00:01;;;;;;;17.48;13.72;;;30.40;51.90;;;;;;1738750;80;21174;-75
2023/02/20 07:02:35;;;;;;;15.93;13.98;;;30.40;52.40;;;;;;1740555;81;21223;-75
2023/02/20 07:05:09;;;;;;;16.87;14.03;;;30.30;52.40;;;;;;1713149;82;21302;-74
2023/02/20 07:07:42;;;;;;;17.70;13.95;;;30.30;52.50;;;;;;1715089;81;21692;-75
2023/02/20 07:10:14;;;;;;;19.55;13.83;;;30.30;52.40;;;;;;1719125;81;21154;-76
2023/02/20 07:12:47;;;;;;;16.60;13.50;;;30.40;51.80;;;;;;1706539;82;21229;-75
2023/02/20 07:15:22;;;;;;;18.82;13.78;;;30.40;51.60;;;;;;1705179;82;21545;-75
2023/02/20 07:17:57;;;;;;;15.88;13.13;;;30.40;51.90;;;;;;1715407;81;21122;-76
2023/02/20 07:20:28;;;;;;;18.00;14.28;;;30.40;51.70;;;;;;1713045;81;21700;-77
2023/02/20 07:22:59;;;;;;;17.32;14.00;;;30.40;51.90;;;;;;1714242;81;21179;-75
2023/02/20 07:25:30;;;;;;;17.70;13.60;;;30.50;51.80;;;;;;1685754;83;21265;-75
2023/02/20 07:28:01;;;;;;;19.02;14.03;;;30.40;50.90;;;;;;1725982;82;21085;-74
2023/02/20 07:30:32;;;;;;;18.57;13.35;;;30.40;51.50;;;;;;1698494;82;21247;-75
2023/02/20 07:33:06;;;;;;;16.57;13.62;;;30.30;51.80;;;;;;1700242;82;21304;-74
2023/02/20 07:35:38;;;;;;;16.15;12.78;;;30.30;51.80;;;;;;1699090;82;21205;-76
2023/02/20 07:38:09;;;;;;;16.90;13.35;;;30.20;51.80;;;;;;1711013;81;21717;-76
2023/02/20 07:40:42;;;;;;;15.53;12.85;;;30.30;51.90;;;;;;1711611;80;21514;-77
2023/02/20 07:43:32;;;;;;;16.40;12.80;;;30.30;51.90;;;;;;1712960;81;21170;-76
2023/02/20 07:46:05;;;;;;;16.12;12.95;;;30.40;52.10;;;;;;1742229;80;21217;-76
2023/02/20 07:48:46;;;;;;;17.17;13.45;;;30.40;52.10;;;;;;1740796;80;21089;-74
2023/02/20 07:51:16;;;;;;;16.80;11.48;;;30.40;52.40;;;;;;1740573;80;21312;-74
2023/02/20 07:53:53;;;;;;;14.10;11.93;;;30.40;51.50;;;;;;1686307;83;21254;-73
2023/02/20 07:56:25;;;;;;;12.85;11.55;;;30.40;50.60;;;;;;1685189;83;21649;-76
2023/02/20 07:59:05;;;;;;;15.03;10.93;;;30.40;50.10;;;;;;1706601;82;21164;-74
2023/02/20 08:01:37;;;;;;;15.23;12.40;;;30.30;50.30;;;;;;1705878;82;21288;-73
2023/02/20 08:04:09;;;;;;;17.05;11.75;;;30.20;50.40;;;;;;1716325;81;21206;-73
2023/02/20 08:06:40;;;;;;;14.18;11.97;;;30.10;51.00;;;;;;1682588;83;21328;-74
2023/02/20 08:09:11;;;;;;;17.23;12.78;;;30.10;51.30;;;;;;1704475;82;21833;-74
2023/02/20 08:11:42;;;;;;;13.70;12.23;;;30.10;51.50;;;;;;1705693;82;21747;-74
2023/02/20 08:14:15;;;;;;;14.40;11.90;;;30.10;51.50;;;;;;1717553;82;21234;-73
2023/02/20 08:16:53;;;;;;;15.37;12.23;;;30.10;51.50;;;;;;1682204;83;21283;-75
2023/02/20 08:19:21;;;;;;;14.15;12.37;;;30.10;51.30;;;;;;1707753;82;21293;-75
2023/02/20 08:21:53;;;;;;;15.63;12.37;;;30.10;51.30;;;;;;1701093;82;21202;-76
2023/02/20 08:24:29;;;;;;;22.85;13.40;;;30.10;51.90;;;;;;1698848;82;21257;-75
2023/02/20 08:27:00;;;;;;;;;;;30.10;52.00;;;;;;1705926;82;21220;-76
2023/02/20 08:29:31;;;;;;;17.65;12.55;;;30.20;52.30;;;;;;1700643;82;20281;-74
2023/02/20 08:32:03;;;;;;;16.52;12.07;;;30.10;52.80;;;;;;1701396;82;21306;-74
2023/02/20 08:34:35;;;;;;;16.82;12.50;;;30.10;51.70;;;;;;1699250;82;21775;-76
2023/02/20 08:37:08;;;;;;;18.50;12.80;;;30.10;51.10;;;;;;1701705;82;21333;-77
2023/02/20 08:39:44;;;;;;;15.63;12.23;;;30.10;51.60;;;;;;1702516;82;21162;-74
2023/02/20 08:42:27;;;;;;;14.90;11.95;;;30.00;51.40;;;;;;1707588;82;21228;-75
2023/02/20 08:45:02;;;;;;;14.85;12.33;;;30.00;51.50;;;;;;1705787;82;21984;-76
2023/02/20 08:51:05;;;;;;;15.95;13.22;;;30.00;51.30;;;;;;1721124;82;21564;-76
2023/02/20 08:53:37;;;;;;;15.72;13.13;;;30.00;51.60;;;;;;1748325;80;21330;-78
2023/02/20 08:56:11;;;;;;;17.50;13.03;;;30.00;51.40;;;;;;1749914;80;21391;-77
2023/02/20 08:58:49;;;;;;;17.07;12.90;;;30.00;51.20;;;;;;1706082;82;21281;-77
2023/02/20 09:01:17;;;;;;;17.30;13.08;;;30.00;51.40;;;;;;1693119;82;21918;-75
2023/02/20 09:03:53;;;;;;;14.05;12.55;;;30.00;51.40;;;;;;1700566;82;21208;-75
2023/02/20 09:06:25;;;;;;;15.88;12.68;;;30.00;51.70;;;;;;1684306;83;21814;-76
2023/02/20 09:08:59;;;;;;;17.73;12.47;;;30.00;51.30;;;;;;1753410;80;21193;-75
2023/02/20 09:11:33;;;;;;;17.32;13.00;;;30.00;51.70;;;;;;1758439;80;21408;-74
2023/02/20 09:14:07;;;;;;;17.35;12.35;;;30.00;51.60;;;;;;1759249;80;21648;-75
2023/02/20 09:16:40;;;;;;;14.30;11.70;;;30.00;52.00;;;;;;1751023;80;21226;-77
2023/02/20 09:19:12;;;;;;;14.13;11.73;;;30.00;51.10;;;;;;1758223;80;21195;-76
2023/02/20 09:21:48;;;;;;;15.20;12.25;;;30.10;50.90;;;;;;1757963;80;21280;-76
2023/02/20 09:24:19;;;;;;;15.32;12.18;;;30.00;51.10;;;;;;1760613;80;21174;-76
2023/02/20 09:26:50;;;;;;;16.60;12.43;;;30.10;51.50;;;;;;1756981;80;21159;-75
2023/02/20 09:29:20;;;;;;;16.60;11.95;;;30.00;51.30;;;;;;1759602;80;21183;-75
2023/02/20 09:31:55;;;;;;;16.42;11.93;;;30.00;50.80;;;;;;1755862;80;21145;-76
2023/02/20 09:34:27;;;;;;;18.15;13.08;;;30.00;50.80;;;;;;1758145;81;21155;-75
2023/02/20 09:37:03;;;;;;;17.27;12.95;;;30.00;50.90;;;;;;1756820;80;21629;-77
2023/02/20 09:39:31;;;;;;;16.10;13.25;;;29.90;50.90;;;;;;1758150;80;21724;-76
2023/02/20 09:42:25;;;;;;;17.32;13.18;;;29.90;51.00;;;;;;1757703;80;21426;-76
2023/02/20 09:45:12;;;;;;;19.15;13.20;;;29.80;51.20;;;;;;1757789;80;21731;-74
2023/02/20 09:47:55;;;;;;;15.88;13.08;;;29.80;51.40;;;;;;1757140;80;21702;-75
2023/02/20 09:50:38;;;;;;;16.40;12.58;;;29.70;51.30;;;;;;1756691;80;21988;-76
2023/02/20 09:53:17;;;;;;;15.63;12.53;;;29.70;51.40;;;;;;1761069;80;21205;-76
2023/02/20 09:55:51;;;;;;;16.50;12.33;;;29.70;51.10;;;;;;1757692;80;21629;-75
2023/02/20 09:58:27;;;;;;;17.40;13.28;;;29.60;51.40;;;;;;1756360;80;21503;-75
2023/02/20 10:01:04;;;;;;;18.48;12.88;;;29.60;51.80;;;;;;1755754;80;21168;-76
2023/02/20 10:03:42;;;;;;;16.80;12.63;;;29.60;51.80;;;;;;1754920;80;21238;-72
2023/02/20 10:06:22;;;;;;;16.60;12.90;;;29.60;52.10;;;;;;1756351;80;21875;-74
2023/02/20 10:08:53;;;;;;;18.42;13.00;;;29.60;52.10;;;;;;1754426;80;21217;-76
2023/02/20 10:11:32;;;;;;;16.55;13.15;;;29.50;52.30;;;;;;1742405;80;21251;-76
2023/02/20 10:14:21;;;;;;;17.57;12.45;;;29.50;51.80;;;;;;1751558;78;21271;-79
2023/02/20 10:17:15;;;;;;;18.75;13.60;;;29.50;52.00;;;;;;1743807;80;21169;-73
2023/02/20 10:20:04;;;;;;;18.42;13.03;;;29.50;52.20;;;;;;1746817;80;21265;-75
2023/02/20 10:25:39;;;;;;;17.35;12.65;;;29.40;52.20;;;;;;1763856;80;21162;-74
2023/02/20 10:28:29;;;;;;;17.98;13.93;;;29.40;52.40;;;;;;1759575;80;21441;-75
2023/02/20 10:31:06;;;;;;;19.67;15.72;;;29.40;52.40;;;;;;1771120;79;21165;-75
2023/02/20 10:33:43;;;;;;;23.15;16.57;;;29.30;52.00;;;;;;1754261;79;21216;-75
2023/02/20 10:36:26;;;;;;;21.50;17.17;;;29.30;52.30;;;;;;1770517;79;21898;-77
2023/02/20 10:39:11;;;;;;;24.55;18.70;;;29.30;52.60;;;;;;1728077;81;21279;-75
2023/02/20 10:42:02;;;;;;;22.67;17.00;;;29.30;52.90;;;;;;1702099;82;21166;-76
2023/02/20 10:44:44;;;;;;;21.15;17.15;;;29.20;53.10;;;;;;1731175;81;21828;-87
2023/02/20 10:47:46;;;;;;;22.73;17.65;;;29.20;53.40;;;;;;1728576;81;21689;-87
2023/02/20 10:50:27;;;;;;;22.48;17.37;;;29.20;53.60;;;;;;1733891;81;21201;-87
2023/02/20 10:53:06;;;;;;;19.75;16.32;;;29.20;53.80;;;;;;1740328;82;21098;-88
2023/02/20 10:55:48;;;;;;;18.82;15.93;;;29.20;53.80;;;;;;1735156;80;21189;-84
2023/02/20 10:58:24;;;;;;;20.97;15.90;;;29.10;53.90;;;;;;1736898;81;21222;-86
2023/02/20 11:01:00;;;;;;;19.15;15.05;;;29.10;54.10;;;;;;1732192;81;21188;-87
2023/02/20 11:03:36;;;;;;;21.85;15.40;;;29.00;54.20;;;;;;1704097;82;21802;-86
2023/02/20 11:06:09;;;;;;;22.07;14.47;;;29.00;54.40;;;;;;1716948;82;21130;-84
2023/02/20 11:08:44;;;;;;;22.02;14.00;;;28.90;54.50;;;;;;1710334;82;21707;-84
2023/02/20 11:11:23;;;;;;;17.55;14.85;;;28.90;54.60;;;;;;1732140;81;21103;-85
2023/02/20 11:13:54;;;;;;;23.07;16.00;;;28.90;54.60;;;;;;1730279;81;21222;-84
2023/02/20 11:16:31;;;;;;;29.10;16.65;;;28.90;54.80;;;;;;1708669;84;21116;-84
2023/02/20 11:19:20;;;;;;;23.45;16.05;;;28.80;54.90;;;;;;1678851;85;21129;-85
2023/02/20 11:21:52;;;;;;;23.62;17.02;;;28.80;55.10;;;;;;1674091;85;21212;-85
2023/02/20 11:24:32;;;;;;;22.37;16.85;;;28.80;55.20;;;;;;1673528;86;21420;-84
2023/02/20 11:27:17;;;;;;;23.40;16.48;;;28.80;55.30;;;;;;1696517;83;21918;-83
2023/02/20 11:29:56;;;;;;;23.12;17.12;;;28.70;55.50;;;;;;1732247;82;21822;-84
2023/02/20 11:32:38;;;;;;;27.62;17.60;;;28.70;55.70;;;;;;1780098;80;21205;-84
2023/02/20 11:35:20;;;;;;;29.52;19.17;;;28.70;55.80;;;;;;1787701;80;21190;-85
2023/02/20 11:38:10;;;;;;;25.08;19.10;;;28.70;55.90;;;;;;1784516;80;21167;-84
2023/02/20 11:40:41;;;;;;;28.07;19.48;;;28.60;55.90;;;;;;1790299;80;21149;-85
2023/02/20 11:43:18;;;;;;;30.72;19.25;;;28.60;56.00;;;;;;1780116;80;21118;-84
2023/02/20 11:45:53;;;;;;;30.10;19.57;;;28.60;56.10;;;;;;1795411;80;21199;-84
2023/02/20 11:48:21;;;;;;;28.30;18.98;;;28.60;56.20;;;;;;1794973;79;21274;-85
2023/02/20 11:50:54;;;;;;;34.45;21.37;;;28.50;56.20;;;;;;1787470;80;21262;-85
2023/02/20 11:53:28;;;;;;;29.00;20.45;;;28.50;56.20;;;;;;1776660;79;21241;-85
2023/02/20 11:56:11;;;;;;;28.52;18.62;;;28.50;56.20;;;;;;1780223;79;21245;-85
2023/02/20 11:58:43;;;;;;;27.07;20.00;;;28.50;56.20;;;;;;1778246;79;21691;-84
2023/02/20 12:01:37;;;;;;;24.45;19.25;;;28.50;56.50;;;;;;1783257;80;21871;-84
2023/02/20 12:04:20;;;;;;;27.25;19.20;;;28.40;56.60;;;;;;1795246;80;21148;-85
2023/02/20 12:06:53;;;;;;;22.75;17.50;;;28.40;56.80;;;;;;1794400;78;21144;-85
2023/02/20 12:09:31;;;;;;;24.63;17.80;;;28.40;57.10;;;;;;1775376;80;21211;-84
2023/02/20 12:12:02;;;;;;;23.62;18.90;;;28.40;57.40;;;;;;1796801;80;21254;-84
2023/02/20 12:14:33;;;;;;;26.82;18.57;;;28.40;57.60;;;;;;1777806;80;21178;-84
2023/02/20 12:17:22;;;;;;;24.05;17.85;;;28.30;57.70;;;;;;1788582;80;21169;-85
2023/02/20 12:20:17;;;;;;;27.73;19.20;;;28.30;58.00;;;;;;1809982;78;21063;-85
2023/02/20 12:23:06;;;;;;;27.20;19.82;;;28.40;58.30;;;;;;1809914;78;21139;-86
2023/02/20 12:26:11;;;;;;;29.45;19.57;;;28.30;58.70;;;;;;1772805;79;21175;-84
2023/02/20 12:29:03;;;;;;;28.27;19.55;;;28.30;58.90;;;;;;1778972;80;21135;-84
2023/02/20 12:31:39;;;;;;;28.95;19.52;;;28.30;59.10;;;;;;1742663;81;21147;-85
2023/02/20 12:34:15;;;;;;;24.98;19.10;;;28.30;59.40;;;;;;1742670;81;21243;-84
2023/02/20 12:36:54;;;;;;;28.03;19.53;;;28.30;59.60;;;;;;1743052;82;21166;-84
2023/02/20 12:39:34;;;;;;;28.98;18.85;;;28.20;60.00;;;;;;1749293;80;21689;-85
2023/02/20 12:42:28;;;;;;;26.77;18.25;;;28.20;60.00;;;;;;1750000;82;21085;-84
2023/02/20 12:48:24;;;;;;;25.43;18.30;;;28.10;61.40;;;;;;1699485;82;21148;-85
2023/02/20 12:51:26;;;;;;;26.42;18.35;;;28.10;60.80;;;;;;1749995;82;21291;-85
2023/02/20 12:54:34;;;;;;;23.75;17.23;;;28.10;60.80;;;;;;1729751;80;21113;-84
2023/02/20 12:57:20;;;;;;;24.07;17.90;;;28.10;61.10;;;;;;1705703;82;21170;-85
2023/02/20 13:00:02;;;;;;;25.12;17.70;;;28.10;61.10;;;;;;1712310;82;21686;-86
2023/02/20 13:02:41;;;;;;;27.60;18.55;;;28.10;61.50;;;;;;1753793;81;21113;-84
2023/02/20 13:09:00;;;;;;;24.43;17.40;;;28.10;61.70;;;;;;1695482;84;21152;-85
2023/02/20 13:12:38;;;;;;;26.65;17.90;;;28.10;61.80;;;;;;1690603;83;21962;-84
2023/02/20 13:14:40;;;;;;;25.50;18.17;;;28.00;61.90;;;;;;1720582;83;21296;-83
2023/02/20 13:17:24;;;;;;;26.57;18.75;;;28.00;61.90;;;;;;1693162;83;21241;-85
2023/02/20 13:20:37;;;;;;;26.30;18.20;;;28.00;62.00;;;;;;1694903;84;21234;-85
2023/02/20 13:23:21;;;;;;;26.33;18.27;;;28.00;62.00;;;;;;1749084;82;21113;-84
2023/02/20 13:25:55;;;;;;;23.25;17.52;;;28.00;62.10;;;;;;1752699;80;21696;-85
2023/02/20 13:29:16;;;;;;;27.07;17.48;;;27.90;61.90;;;;;;1735859;80;21629;-84
2023/02/20 13:31:56;;;;;;;23.62;17.42;;;27.90;62.20;;;;;;1750457;80;21252;-85
2023/02/20 13:34:30;;;;;;;26.52;18.55;;;27.90;62.30;;;;;;1746387;82;21154;-84
2023/02/20 13:37:02;;;;;;;29.23;18.48;;;27.90;62.20;;;;;;1733013;82;21207;-84
2023/02/20 13:39:36;;;;;;;27.30;18.55;;;27.90;62.20;;;;;;1730452;81;21783;-84
2023/02/20 13:42:28;;;;;;;25.08;18.82;;;27.90;62.30;;;;;;1738385;81;21401;-84
2023/02/20 13:45:01;;;;;;;24.32;17.57;;;27.90;62.50;;;;;;1739487;81;21136;-83
2023/02/20 13:47:37;;;;;;;21.25;16.90;;;27.90;62.70;;;;;;1681443;81;22002;-83
2023/02/20 13:50:30;;;;;;;25.03;18.77;;;27.80;62.40;;;;;;1736177;82;21237;-84
2023/02/20 13:53:04;;;;;;;23.52;17.62;;;27.80;62.70;;;;;;1739611;82;21158;-83
2023/02/20 13:55:37;;;;;;;25.55;18.05;;;27.80;62.80;;;;;;1738343;82;21211;-84